Time;durP1;ratioP1;P1;durP2;ratioP2;P2;SDS_P1;SDS_P2;PMS_P1;PMS_P2;Temp;Humidity;BMP_temperature;BMP_pressure;BME280_temperature;BME280_humidity;BME280_pressure;Samples;Min_cycle;Max_cycle;Signal;HPM_P1;HPM_P2
2022/11/26 00:01:20;;;;;;;12.45;4.90;;;6.70;99.90;;;;;;5071959;28;20044;-66
2022/11/26 00:03:46;;;;;;;8.18;6.03;;;6.70;99.90;;;;;;5071706;28;20044;-68
2022/11/26 00:06:27;;;;;;;9.43;5.50;;;6.70;99.90;;;;;;5071452;28;20508;-67
2022/11/26 00:08:52;;;;;;;13.73;5.53;;;6.80;99.90;;;;;;5071807;28;20044;-69
2022/11/26 00:11:18;;;;;;;16.23;5.60;;;6.70;99.90;;;;;;5071702;28;20167;-67
2022/11/26 00:13:43;;;;;;;11.82;5.15;;;6.80;99.90;;;;;;5071285;28;20070;-67
2022/11/26 00:16:13;;;;;;;21.48;5.70;;;6.70;99.90;;;;;;5053379;28;20535;-67
2022/11/26 00:18:42;;;;;;;14.27;5.97;;;6.80;99.90;;;;;;5071770;28;20036;-67
2022/11/26 00:21:24;;;;;;;16.95;5.47;;;6.70;99.90;;;;;;5071710;28;20044;-67
2022/11/26 00:23:51;;;;;;;14.15;5.80;;;6.70;99.90;;;;;;5070496;28;20049;-67
2022/11/26 00:26:23;;;;;;;11.23;5.28;;;6.70;99.90;;;;;;5071430;28;20048;-68
2022/11/26 00:28:59;;;;;;;12.38;5.10;;;6.70;99.90;;;;;;5071305;28;20032;-67
2022/11/26 00:31:25;;;;;;;19.17;6.10;;;6.60;99.90;;;;;;5070942;28;20040;-67
2022/11/26 00:33:51;;;;;;;17.05;6.28;;;6.60;99.90;;;;;;5070553;28;20086;-68
2022/11/26 00:36:26;;;;;;;13.75;5.88;;;6.60;99.90;;;;;;5071360;28;20040;-67
2022/11/26 00:39:02;;;;;;;13.43;5.95;;;6.60;99.90;;;;;;5071415;28;20036;-68
2022/11/26 00:41:33;;;;;;;13.82;5.97;;;6.60;99.90;;;;;;5071118;28;20033;-68
2022/11/26 00:43:59;;;;;;;8.17;5.50;;;6.60;99.90;;;;;;5070362;28;20039;-68
2022/11/26 00:46:25;;;;;;;21.40;8.05;;;6.60;99.90;;;;;;5069394;28;20041;-69
2022/11/26 00:48:50;;;;;;;14.45;6.22;;;6.50;99.90;;;;;;5071067;28;20029;-67
2022/11/26 00:51:25;;;;;;;13.10;5.75;;;6.50;99.90;;;;;;5070884;28;20098;-67
2022/11/26 00:53:54;;;;;;;15.23;6.35;;;6.50;99.90;;;;;;5069598;28;20040;-67
2022/11/26 00:56:21;;;;;;;14.02;6.50;;;6.50;99.90;;;;;;5071018;28;20691;-67
2022/11/26 00:58:48;;;;;;;17.98;6.97;;;6.50;99.90;;;;;;5071008;28;20476;-67
2022/11/26 01:01:20;;;;;;;16.83;6.30;;;6.50;99.90;;;;;;5071249;28;20043;-67
2022/11/26 01:03:47;;;;;;;13.02;6.25;;;6.50;99.90;;;;;;5068638;28;20048;-67
2022/11/26 01:06:25;;;;;;;9.95;5.95;;;6.50;99.90;;;;;;5069538;28;20084;-67
2022/11/26 01:08:50;;;;;;;16.77;7.38;;;6.50;99.90;;;;;;5070974;28;20044;-67
2022/11/26 01:11:19;;;;;;;15.32;6.50;;;6.50;99.90;;;;;;5070979;28;20055;-67
2022/11/26 01:13:46;;;;;;;14.55;7.28;;;6.50;99.90;;;;;;5069995;28;20040;-69
2022/11/26 01:16:19;;;;;;;15.05;5.90;;;6.50;99.90;;;;;;5069399;28;20048;-67
2022/11/26 01:18:46;;;;;;;10.10;5.63;;;6.50;99.90;;;;;;5071053;28;20044;-67
2022/11/26 01:21:13;;;;;;;16.15;6.30;;;6.40;99.90;;;;;;5070659;28;20044;-67
2022/11/26 01:23:38;;;;;;;14.40;6.10;;;6.50;99.90;;;;;;5070902;28;20150;-67
2022/11/26 01:26:04;;;;;;;14.98;6.75;;;6.40;99.90;;;;;;5069707;28;20087;-67
2022/11/26 01:28:30;;;;;;;15.70;6.55;;;6.40;99.90;;;;;;5070595;28;20091;-68
2022/11/26 01:30:55;;;;;;;17.13;5.78;;;6.40;99.90;;;;;;5070354;28;20448;-67
2022/11/26 01:33:21;;;;;;;15.70;6.47;;;6.40;99.90;;;;;;5069030;28;20044;-68
2022/11/26 01:35:46;;;;;;;10.75;5.78;;;6.40;99.90;;;;;;5069431;28;20040;-67
2022/11/26 01:38:13;;;;;;;16.80;6.43;;;6.40;99.90;;;;;;5070458;28;20055;-68
2022/11/26 01:40:59;;;;;;;11.25;6.10;;;6.30;99.90;;;;;;5070480;28;20041;-67
2022/11/26 01:43:38;;;;;;;15.95;6.63;;;6.40;99.90;;;;;;5070209;28;20174;-67
2022/11/26 01:46:14;;;;;;;13.05;5.97;;;6.40;99.90;;;;;;5068424;28;20179;-67
2022/11/26 01:48:39;;;;;;;12.23;5.75;;;6.30;99.90;;;;;;5048484;28;20044;-67
2022/11/26 01:51:09;;;;;;;13.88;6.28;;;6.40;99.90;;;;;;5049871;28;20041;-67
2022/11/26 01:53:50;;;;;;;12.88;5.97;;;6.30;99.90;;;;;;5050015;28;20037;-68
2022/11/26 01:56:18;;;;;;;10.82;5.53;;;6.30;99.90;;;;;;5050389;28;20504;-67
2022/11/26 01:58:52;;;;;;;16.08;6.20;;;6.30;99.90;;;;;;5050316;28;20047;-67
2022/11/26 02:01:19;;;;;;;9.23;5.30;;;6.30;99.90;;;;;;5032452;28;20051;-67
2022/11/26 02:03:58;;;;;;;10.40;5.82;;;6.20;99.90;;;;;;5049332;28;20596;-70
2022/11/26 02:06:30;;;;;;;11.93;5.80;;;6.20;99.90;;;;;;5053082;28;20059;-67
2022/11/26 02:08:57;;;;;;;17.58;5.95;;;6.10;99.90;;;;;;5054168;28;20118;-67
2022/11/26 02:11:24;;;;;;;11.00;5.47;;;6.10;99.90;;;;;;5054251;28;20090;-68
2022/11/26 02:13:53;;;;;;;13.93;6.28;;;6.10;99.90;;;;;;5051703;28;20045;-68
2022/11/26 02:16:43;;;;;;;13.02;5.75;;;5.90;99.90;;;;;;5053887;28;20095;-68
2022/11/26 02:19:23;;;;;;;11.95;5.95;;;6.00;99.90;;;;;;5054006;28;20033;-67
2022/11/26 02:22:03;;;;;;;11.65;5.78;;;6.00;99.90;;;;;;5035857;28;20080;-69
2022/11/26 02:24:58;;;;;;;10.98;6.25;;;6.00;99.90;;;;;;5053335;28;20049;-67
2022/11/26 02:27:45;;;;;;;13.10;5.88;;;5.90;99.90;;;;;;5053913;28;20091;-67
2022/11/26 02:30:13;;;;;;;9.65;5.35;;;5.90;99.90;;;;;;5053834;28;20041;-68
2022/11/26 02:32:50;;;;;;;10.60;6.07;;;5.90;99.90;;;;;;5053903;28;20668;-67
2022/11/26 02:35:16;;;;;;;14.57;6.50;;;5.90;99.90;;;;;;5052532;28;20068;-67
2022/11/26 02:37:49;;;;;;;10.25;6.18;;;5.90;99.90;;;;;;5053678;28;20840;-67
2022/11/26 02:40:15;;;;;;;10.60;6.03;;;5.90;99.90;;;;;;5053745;28;20048;-68
2022/11/26 02:42:41;;;;;;;10.00;6.00;;;5.90;99.90;;;;;;5053419;28;20070;-67
2022/11/26 02:45:21;;;;;;;14.00;6.47;;;5.90;99.90;;;;;;5052411;28;20040;-67
2022/11/26 02:47:49;;;;;;;18.17;6.63;;;5.90;99.90;;;;;;5035549;28;20087;-67
2022/11/26 02:50:29;;;;;;;13.63;6.10;;;5.90;99.90;;;;;;5053625;28;20047;-66
2022/11/26 02:52:57;;;;;;;13.70;6.63;;;5.90;99.90;;;;;;5053180;28;20040;-67
2022/11/26 02:55:28;;;;;;;13.38;6.45;;;5.90;99.90;;;;;;5052613;28;20037;-67
2022/11/26 02:57:54;;;;;;;10.07;6.35;;;5.90;99.90;;;;;;5052988;28;20048;-67
2022/11/26 03:00:20;;;;;;;14.35;7.18;;;5.90;99.90;;;;;;5052966;28;20041;-67
2022/11/26 03:02:51;;;;;;;14.25;6.30;;;5.90;99.90;;;;;;5052293;28;20186;-67
2022/11/26 03:05:18;;;;;;;13.82;6.43;;;5.80;99.90;;;;;;5052073;28;20396;-67
2022/11/26 03:07:49;;;;;;;13.48;6.20;;;5.80;99.90;;;;;;5053205;28;20045;-69
2022/11/26 03:10:16;;;;;;;12.43;7.07;;;5.80;99.90;;;;;;5053147;28;20033;-67
2022/11/26 03:12:42;;;;;;;11.88;6.63;;;5.80;99.90;;;;;;5052768;28;20393;-68
2022/11/26 03:15:08;;;;;;;15.43;6.72;;;5.80;99.90;;;;;;5052133;28;20041;-67
2022/11/26 03:17:33;;;;;;;10.57;6.40;;;5.80;99.90;;;;;;5052350;28;20036;-67
2022/11/26 03:19:59;;;;;;;13.90;6.78;;;5.80;99.90;;;;;;5052622;28;20497;-67
2022/11/26 03:22:24;;;;;;;12.23;6.68;;;5.80;99.90;;;;;;5052695;28;20490;-68
2022/11/26 03:24:50;;;;;;;10.85;6.68;;;5.70;99.90;;;;;;5051690;28;20036;-67
2022/11/26 03:27:15;;;;;;;13.68;7.00;;;5.70;99.90;;;;;;5052447;28;20473;-67
2022/11/26 03:29:41;;;;;;;11.80;6.53;;;5.80;99.90;;;;;;5052814;28;20029;-67
2022/11/26 03:32:06;;;;;;;16.92;7.25;;;5.80;99.90;;;;;;5052559;28;20041;-68
2022/11/26 03:34:35;;;;;;;13.90;8.20;;;5.80;99.90;;;;;;5050417;28;20041;-67
2022/11/26 03:37:01;;;;;;;10.40;6.65;;;5.70;99.90;;;;;;5052613;28;20045;-67
2022/11/26 03:39:26;;;;;;;17.27;7.78;;;5.70;99.90;;;;;;5052688;28;20070;-68
2022/11/26 03:41:52;;;;;;;13.82;6.75;;;5.80;99.90;;;;;;5052158;28;20395;-67
2022/11/26 03:44:17;;;;;;;14.32;5.93;;;5.80;99.90;;;;;;5050162;28;20363;-68
2022/11/26 03:46:43;;;;;;;12.80;6.85;;;5.80;99.90;;;;;;5052302;28;20404;-67
2022/11/26 03:49:08;;;;;;;18.27;7.47;;;5.80;99.90;;;;;;5051943;28;20064;-67
2022/11/26 03:51:34;;;;;;;11.85;6.57;;;5.80;99.90;;;;;;5052370;28;20040;-67
2022/11/26 03:53:59;;;;;;;9.23;6.57;;;5.80;99.90;;;;;;5051115;28;20040;-67
2022/11/26 03:56:25;;;;;;;14.35;6.88;;;5.90;99.90;;;;;;5051871;28;20091;-68
2022/11/26 03:58:50;;;;;;;10.88;6.85;;;5.70;99.90;;;;;;5051771;28;20041;-65
2022/11/26 04:01:16;;;;;;;13.98;6.72;;;5.80;99.90;;;;;;5052153;28;20045;-65
2022/11/26 04:03:41;;;;;;;13.52;7.05;;;5.80;99.90;;;;;;5051376;28;20045;-65
2022/11/26 04:06:07;;;;;;;13.43;6.93;;;5.80;99.90;;;;;;5051566;28;20102;-65
2022/11/26 04:08:33;;;;;;;18.63;7.28;;;5.80;99.90;;;;;;5051869;28;20448;-66
2022/11/26 04:10:58;;;;;;;13.43;7.05;;;5.70;99.90;;;;;;5051906;28;20577;-66
2022/11/26 04:13:24;;;;;;;14.48;7.75;;;5.60;99.90;;;;;;5051710;28;20059;-64
2022/11/26 04:15:50;;;;;;;14.88;6.65;;;5.70;99.90;;;;;;5049545;28;20095;-65
2022/11/26 04:18:15;;;;;;;19.65;8.70;;;5.70;99.90;;;;;;5051580;28;20041;-65
2022/11/26 04:20:41;;;;;;;13.52;8.02;;;5.70;99.90;;;;;;5050205;28;20032;-65
2022/11/26 04:23:07;;;;;;;20.70;8.48;;;5.60;99.90;;;;;;5034129;28;20116;-65
2022/11/26 04:25:32;;;;;;;16.65;7.53;;;5.70;99.90;;;;;;5070490;28;20079;-65
2022/11/26 04:27:58;;;;;;;14.07;7.05;;;5.60;99.90;;;;;;5071101;28;20063;-65
2022/11/26 04:30:23;;;;;;;14.23;7.68;;;5.60;99.90;;;;;;5052893;28;20047;-64
2022/11/26 04:32:49;;;;;;;15.68;8.55;;;5.70;99.90;;;;;;5071427;28;20036;-66
2022/11/26 04:35:14;;;;;;;11.38;7.97;;;5.60;99.90;;;;;;5069262;28;20519;-65
2022/11/26 04:37:40;;;;;;;11.80;7.75;;;5.60;99.90;;;;;;5069813;28;20037;-65
2022/11/26 04:40:07;;;;;;;16.45;8.05;;;5.60;99.90;;;;;;5071064;28;20112;-64
2022/11/26 04:42:32;;;;;;;14.07;7.80;;;5.60;99.90;;;;;;5070919;28;20488;-68
2022/11/26 04:44:58;;;;;;;11.65;7.28;;;5.50;99.90;;;;;;5070394;28;20062;-65
2022/11/26 04:47:24;;;;;;;9.57;7.43;;;5.50;99.90;;;;;;5070932;28;20062;-65
2022/11/26 04:49:49;;;;;;;11.98;7.07;;;5.50;99.90;;;;;;5071271;28;20044;-65
2022/11/26 04:52:15;;;;;;;10.38;6.93;;;5.50;99.90;;;;;;5071244;28;20477;-65
2022/11/26 04:54:40;;;;;;;10.02;6.60;;;5.40;99.90;;;;;;5070073;28;20459;-65
2022/11/26 04:57:06;;;;;;;9.45;6.50;;;5.50;99.90;;;;;;5070861;28;20044;-66
2022/11/26 04:59:31;;;;;;;10.52;7.07;;;5.50;99.90;;;;;;5070817;28;20058;-65
2022/11/26 05:01:58;;;;;;;11.00;7.05;;;5.40;99.90;;;;;;5071023;28;20629;-68
2022/11/26 05:04:24;;;;;;;8.63;6.32;;;5.40;99.90;;;;;;5070161;28;20094;-66
2022/11/26 05:06:50;;;;;;;12.07;6.50;;;5.40;99.90;;;;;;5070387;28;20048;-65
2022/11/26 05:09:15;;;;;;;9.75;6.75;;;5.40;99.90;;;;;;5069506;28;20041;-65
2022/11/26 05:11:41;;;;;;;9.75;6.32;;;5.40;99.90;;;;;;5070832;28;20048;-66
2022/11/26 05:14:07;;;;;;;10.98;6.75;;;5.40;99.90;;;;;;5069768;28;20035;-66
2022/11/26 05:16:32;;;;;;;9.95;6.82;;;5.40;99.90;;;;;;5052551;28;20124;-65
2022/11/26 05:18:58;;;;;;;8.98;6.80;;;5.30;99.90;;;;;;5070922;28;20434;-66
2022/11/26 05:21:24;;;;;;;9.85;6.10;;;5.50;99.90;;;;;;5052578;28;20677;-65
2022/11/26 05:23:49;;;;;;;10.48;6.55;;;5.30;99.90;;;;;;5069942;28;20404;-65
2022/11/26 05:26:15;;;;;;;14.55;6.50;;;5.30;99.90;;;;;;5070401;28;20037;-65
2022/11/26 05:28:41;;;;;;;16.98;6.80;;;5.30;99.90;;;;;;5071001;28;20043;-66
2022/11/26 05:31:07;;;;;;;8.57;6.30;;;5.20;99.90;;;;;;5070912;28;20367;-65
2022/11/26 05:33:32;;;;;;;8.18;6.22;;;5.30;99.90;;;;;;5052643;28;20075;-65
2022/11/26 05:35:58;;;;;;;9.05;6.78;;;5.20;99.90;;;;;;5070082;28;20041;-65
2022/11/26 05:38:23;;;;;;;10.60;6.75;;;5.20;99.90;;;;;;5070691;28;20047;-65
2022/11/26 05:40:49;;;;;;;9.07;6.25;;;5.20;99.90;;;;;;5072505;28;20558;-64
2022/11/26 05:43:15;;;;;;;11.63;6.40;;;5.20;99.90;;;;;;5074460;28;20039;-64
2022/11/26 05:45:40;;;;;;;9.82;6.05;;;5.10;99.90;;;;;;5072352;28;20044;-65
2022/11/26 05:48:06;;;;;;;10.10;6.43;;;5.20;99.90;;;;;;5074561;28;20063;-65
2022/11/26 05:50:32;;;;;;;12.13;6.63;;;5.20;99.90;;;;;;5074495;28;20378;-65
2022/11/26 05:52:58;;;;;;;11.27;5.97;;;5.10;99.90;;;;;;5074436;28;20119;-65
2022/11/26 05:55:24;;;;;;;11.60;7.18;;;5.10;99.90;;;;;;5073483;28;20136;-65
2022/11/26 05:57:49;;;;;;;11.90;7.70;;;5.10;99.90;;;;;;5074464;28;20036;-65
2022/11/26 06:00:15;;;;;;;10.95;6.70;;;5.20;99.90;;;;;;5073909;28;20097;-65
2022/11/26 06:02:41;;;;;;;11.30;7.35;;;5.10;99.90;;;;;;5072890;28;20542;-66
2022/11/26 06:05:07;;;;;;;12.32;6.75;;;5.20;99.90;;;;;;5073123;28;20513;-66
2022/11/26 06:07:33;;;;;;;13.02;7.38;;;5.10;99.90;;;;;;5073973;28;20749;-65
2022/11/26 06:09:58;;;;;;;12.18;7.88;;;5.20;99.90;;;;;;5074092;28;20064;-65
2022/11/26 06:12:24;;;;;;;13.15;7.13;;;5.20;99.90;;;;;;5074033;28;20036;-65
2022/11/26 06:14:49;;;;;;;12.88;7.75;;;5.20;99.90;;;;;;5073265;28;20032;-65
2022/11/26 06:17:15;;;;;;;12.23;8.10;;;5.20;99.90;;;;;;5074150;28;20085;-65
2022/11/26 06:19:41;;;;;;;16.90;7.45;;;5.20;99.90;;;;;;5073805;28;20040;-65
2022/11/26 06:22:06;;;;;;;18.70;8.45;;;5.20;99.90;;;;;;5073827;28;20040;-66
2022/11/26 06:24:32;;;;;;;13.45;9.35;;;5.20;99.90;;;;;;5073237;28;20040;-65
2022/11/26 06:26:58;;;;;;;13.43;9.07;;;5.20;99.90;;;;;;5072353;28;20048;-65
2022/11/26 06:29:23;;;;;;;13.98;8.77;;;5.20;99.90;;;;;;5072360;28;20044;-65
2022/11/26 06:31:49;;;;;;;15.00;8.13;;;5.30;99.90;;;;;;5073785;28;20048;-65
2022/11/26 06:34:15;;;;;;;14.52;8.27;;;5.20;99.90;;;;;;5072810;28;20035;-66
2022/11/26 06:36:41;;;;;;;16.25;8.25;;;5.30;99.90;;;;;;5073575;28;20040;-66
2022/11/26 06:39:08;;;;;;;16.63;8.25;;;5.30;99.90;;;;;;5073408;28;20048;-66
2022/11/26 06:41:34;;;;;;;17.63;9.07;;;5.20;99.90;;;;;;5073641;28;20041;-65
2022/11/26 06:43:59;;;;;;;13.30;8.13;;;5.30;99.90;;;;;;5072535;28;20053;-65
2022/11/26 06:46:25;;;;;;;15.63;8.98;;;5.20;99.90;;;;;;5073471;28;20037;-65
2022/11/26 06:48:50;;;;;;;18.85;8.88;;;5.20;99.90;;;;;;5073438;28;20136;-65
2022/11/26 06:51:19;;;;;;;14.38;8.77;;;5.30;99.90;;;;;;5072848;28;20047;-65
2022/11/26 06:53:45;;;;;;;13.95;8.60;;;5.30;99.90;;;;;;5071874;28;20418;-66
2022/11/26 06:56:13;;;;;;;17.73;9.05;;;5.40;99.90;;;;;;5071884;28;20127;-65
2022/11/26 06:58:38;;;;;;;15.57;8.75;;;5.20;99.90;;;;;;5073024;28;20045;-65
2022/11/26 07:01:19;;;;;;;13.93;8.80;;;5.20;99.90;;;;;;5073056;28;20098;-65
2022/11/26 07:03:45;;;;;;;14.43;8.60;;;5.30;99.90;;;;;;5072457;28;20048;-64
2022/11/26 07:06:18;;;;;;;21.73;8.65;;;5.30;99.90;;;;;;5072652;28;20044;-64
2022/11/26 07:08:44;;;;;;;19.98;9.90;;;5.30;99.90;;;;;;5073200;28;20039;-65
2022/11/26 07:11:10;;;;;;;15.48;9.38;;;5.30;99.90;;;;;;5066882;28;20107;-64
2022/11/26 07:13:36;;;;;;;23.38;9.27;;;5.30;99.90;;;;;;5062181;28;20044;-65
2022/11/26 07:16:03;;;;;;;15.20;8.55;;;5.20;99.90;;;;;;5061598;28;20040;-65
2022/11/26 07:18:29;;;;;;;16.52;9.52;;;5.30;99.90;;;;;;5066614;28;20119;-66
2022/11/26 07:20:55;;;;;;;17.15;9.77;;;5.30;99.90;;;;;;5072452;28;20119;-65
2022/11/26 07:23:20;;;;;;;22.38;9.82;;;5.30;99.90;;;;;;5071092;28;20043;-66
2022/11/26 07:25:46;;;;;;;19.10;9.75;;;5.40;99.90;;;;;;5068063;28;20124;-66
2022/11/26 07:28:11;;;;;;;21.40;10.75;;;5.30;99.90;;;;;;5070640;28;20136;-65
2022/11/26 07:30:37;;;;;;;19.00;9.95;;;5.30;99.90;;;;;;5040308;28;20052;-65
2022/11/26 07:33:02;;;;;;;20.00;10.20;;;5.30;99.90;;;;;;5052481;28;20116;-66
2022/11/26 07:35:28;;;;;;;20.90;10.82;;;5.30;99.90;;;;;;5051549;28;20037;-65
2022/11/26 07:37:53;;;;;;;31.85;10.27;;;5.30;99.90;;;;;;5052746;28;20044;-64
2022/11/26 07:40:19;;;;;;;20.42;10.50;;;5.40;99.90;;;;;;5052696;28;20041;-65
2022/11/26 07:42:45;;;;;;;17.05;9.98;;;5.40;99.90;;;;;;5054786;28;20033;-65
2022/11/26 07:45:10;;;;;;;17.98;10.10;;;5.40;99.90;;;;;;5051493;28;20501;-65
2022/11/26 07:47:36;;;;;;;15.65;9.18;;;5.40;99.90;;;;;;5052378;28;20048;-65
2022/11/26 07:50:02;;;;;;;18.58;9.55;;;5.40;99.90;;;;;;5052383;28;20048;-65
2022/11/26 07:52:28;;;;;;;19.40;9.68;;;5.30;99.90;;;;;;5052122;28;20134;-65
2022/11/26 07:54:53;;;;;;;19.63;10.40;;;5.40;99.90;;;;;;5051270;28;20490;-65
2022/11/26 07:57:21;;;;;;;18.55;10.82;;;5.40;99.90;;;;;;5052271;28;20069;-66
2022/11/26 07:59:46;;;;;;;19.70;10.40;;;5.50;99.90;;;;;;5051869;28;20044;-65
2022/11/26 08:02:15;;;;;;;20.40;10.50;;;5.50;99.90;;;;;;5052018;28;20055;-65
2022/11/26 08:04:41;;;;;;;19.08;11.00;;;5.40;99.90;;;;;;5049270;28;20037;-65
2022/11/26 08:07:07;;;;;;;18.23;10.07;;;5.50;99.90;;;;;;5052178;28;20092;-66
2022/11/26 08:09:33;;;;;;;16.55;9.63;;;5.50;99.90;;;;;;5051984;28;20049;-66
2022/11/26 08:11:59;;;;;;;18.95;10.07;;;5.50;99.90;;;;;;5051732;28;20549;-65
2022/11/26 08:14:25;;;;;;;19.80;9.98;;;5.70;99.90;;;;;;5051032;28;20394;-65
2022/11/26 08:16:50;;;;;;;18.33;10.30;;;5.60;99.90;;;;;;5051891;28;20542;-64
2022/11/26 08:19:16;;;;;;;16.35;9.80;;;5.60;99.90;;;;;;5051789;28;20051;-65
2022/11/26 08:21:42;;;;;;;16.45;8.95;;;5.60;99.90;;;;;;5051602;28;20059;-65
2022/11/26 08:24:13;;;;;;;18.20;9.77;;;5.50;99.90;;;;;;5050986;28;20517;-65
2022/11/26 08:26:38;;;;;;;17.38;9.65;;;5.50;99.90;;;;;;5051585;28;20411;-65
2022/11/26 08:29:04;;;;;;;16.70;10.07;;;5.70;99.90;;;;;;5051819;28;20037;-66
2022/11/26 08:31:30;;;;;;;18.08;10.55;;;5.70;99.90;;;;;;5051589;28;20390;-66
2022/11/26 08:33:57;;;;;;;19.05;9.85;;;5.70;99.90;;;;;;5050642;28;20378;-65
2022/11/26 08:36:22;;;;;;;27.88;12.98;;;5.70;99.90;;;;;;5051549;28;20051;-65
2022/11/26 08:38:48;;;;;;;24.65;11.75;;;5.70;99.90;;;;;;5051421;28;20041;-66
2022/11/26 08:41:13;;;;;;;25.92;11.93;;;5.80;99.90;;;;;;5051204;28;20404;-65
2022/11/26 08:43:40;;;;;;;21.55;11.43;;;5.80;99.90;;;;;;5051145;28;20490;-64
2022/11/26 08:46:06;;;;;;;24.55;12.07;;;5.80;99.90;;;;;;5058235;28;20052;-65
2022/11/26 08:48:32;;;;;;;26.58;12.55;;;5.80;99.90;;;;;;5051257;28;20488;-65
2022/11/26 08:51:00;;;;;;;18.98;10.98;;;5.80;99.90;;;;;;5051251;28;20524;-66
2022/11/26 08:53:27;;;;;;;21.48;11.02;;;5.80;99.90;;;;;;5050659;28;20514;-67
2022/11/26 08:55:57;;;;;;;27.90;11.95;;;6.10;99.90;;;;;;5050364;28;20440;-66
2022/11/26 08:58:23;;;;;;;21.05;10.75;;;5.90;99.90;;;;;;5050812;28;20107;-66
2022/11/26 09:00:48;;;;;;;21.08;11.13;;;5.90;99.90;;;;;;5050924;28;20049;-66
2022/11/26 09:03:14;;;;;;;25.23;11.32;;;6.00;99.90;;;;;;5051168;28;20098;-66
2022/11/26 09:05:39;;;;;;;23.90;11.45;;;5.90;99.90;;;;;;5066280;28;20040;-66
2022/11/26 09:08:05;;;;;;;28.85;12.07;;;6.00;99.90;;;;;;5069115;28;20036;-66
2022/11/26 09:10:30;;;;;;;27.60;12.77;;;6.10;99.90;;;;;;5070754;28;20044;-68
2022/11/26 09:12:56;;;;;;;27.35;13.43;;;6.10;99.90;;;;;;5069432;28;20059;-67
2022/11/26 09:15:21;;;;;;;26.23;12.52;;;6.10;99.90;;;;;;5068802;28;20432;-67
2022/11/26 09:17:47;;;;;;;28.88;13.60;;;6.10;99.90;;;;;;5071007;28;20063;-67
2022/11/26 09:20:12;;;;;;;30.33;12.48;;;6.10;99.90;;;;;;5070809;28;20052;-67
2022/11/26 09:22:38;;;;;;;31.20;13.77;;;6.20;99.90;;;;;;5070714;28;20029;-68
2022/11/26 09:25:04;;;;;;;27.92;14.07;;;6.20;99.90;;;;;;5068927;28;20115;-68
2022/11/26 09:27:29;;;;;;;29.45;14.43;;;6.20;99.90;;;;;;5070824;28;20700;-66
2022/11/26 09:29:55;;;;;;;29.48;14.52;;;6.30;99.90;;;;;;5070590;28;20055;-66
2022/11/26 09:32:21;;;;;;;36.35;15.15;;;6.20;99.90;;;;;;5070839;28;20037;-65
2022/11/26 09:34:46;;;;;;;43.85;15.07;;;6.30;99.90;;;;;;5069761;28;20037;-65
2022/11/26 09:37:12;;;;;;;34.50;15.68;;;6.20;99.90;;;;;;5070645;28;20202;-65
2022/11/26 09:39:37;;;;;;;38.42;15.93;;;6.20;99.90;;;;;;5062799;28;20119;-64
2022/11/26 09:42:14;;;;;;;34.35;15.32;;;6.30;99.90;;;;;;5058321;28;20070;-65
2022/11/26 09:45:05;;;;;;;36.78;16.02;;;6.30;99.90;;;;;;5058415;28;20044;-64
2022/11/26 09:47:38;;;;;;;36.28;15.93;;;6.30;99.90;;;;;;5059107;28;20044;-64
2022/11/26 09:50:09;;;;;;;34.67;14.88;;;6.40;99.90;;;;;;5056278;28;20040;-65
2022/11/26 09:53:04;;;;;;;44.22;16.95;;;6.40;99.90;;;;;;5058174;28;20419;-65
2022/11/26 09:55:33;;;;;;;42.55;17.42;;;6.50;99.90;;;;;;5059084;28;20041;-64
2022/11/26 09:58:20;;;;;;;40.78;16.58;;;6.50;99.90;;;;;;5059094;28;20065;-64
2022/11/26 10:00:48;;;;;;;42.42;17.85;;;6.50;99.90;;;;;;5059263;28;20079;-64
2022/11/26 10:03:22;;;;;;;43.38;16.45;;;6.50;99.90;;;;;;5060489;28;20060;-64
2022/11/26 10:05:54;;;;;;;49.35;18.88;;;6.50;99.90;;;;;;5058241;28;20073;-64
2022/11/26 10:08:45;;;;;;;45.70;18.23;;;6.50;99.90;;;;;;5058875;28;20123;-65
2022/11/26 10:11:34;;;;;;;48.63;19.13;;;6.60;99.90;;;;;;5059730;28;20029;-64
2022/11/26 10:14:29;;;;;;;45.10;19.45;;;6.70;99.90;;;;;;5062937;28;20056;-64
2022/11/26 10:17:16;;;;;;;47.45;19.95;;;6.70;99.90;;;;;;5070069;28;20512;-65
2022/11/26 10:19:47;;;;;;;50.40;20.70;;;6.70;99.90;;;;;;5070491;28;20084;-65
2022/11/26 10:22:31;;;;;;;47.72;20.75;;;6.70;99.90;;;;;;5070120;28;20041;-64
2022/11/26 10:24:58;;;;;;;49.47;19.70;;;6.80;99.90;;;;;;5069351;28;20089;-65
2022/11/26 10:27:29;;;;;;;46.33;20.25;;;6.80;99.90;;;;;;5072931;28;20041;-64
2022/11/26 10:30:05;;;;;;;52.10;19.67;;;6.80;99.90;;;;;;5074021;28;20393;-64
2022/11/26 10:32:38;;;;;;;43.42;19.13;;;6.90;99.90;;;;;;5073932;28;20089;-65
2022/11/26 10:35:04;;;;;;;49.50;20.25;;;6.90;99.90;;;;;;5072981;28;20040;-65
2022/11/26 10:37:30;;;;;;;52.53;20.60;;;6.90;99.90;;;;;;5073429;28;20159;-65
2022/11/26 10:40:16;;;;;;;57.22;25.00;;;6.90;99.90;;;;;;5073451;28;20158;-64
2022/11/26 10:42:47;;;;;;;48.15;20.38;;;6.90;99.90;;;;;;5073326;28;20037;-67
2022/11/26 10:45:19;;;;;;;50.30;19.52;;;7.00;99.90;;;;;;5072653;28;20044;-66
2022/11/26 10:47:45;;;;;;;47.10;19.80;;;7.00;99.90;;;;;;5073547;28;20048;-66
2022/11/26 10:50:10;;;;;;;47.78;19.33;;;7.00;99.90;;;;;;5072326;28;20040;-64
2022/11/26 10:52:38;;;;;;;51.15;20.00;;;7.00;99.90;;;;;;5073015;28;20035;-64
2022/11/26 10:55:23;;;;;;;52.97;20.70;;;7.10;99.90;;;;;;5072445;28;20052;-63
2022/11/26 10:57:57;;;;;;;45.25;18.90;;;7.10;99.90;;;;;;5073387;28;20047;-63
2022/11/26 11:00:48;;;;;;;51.47;19.58;;;7.10;99.90;;;;;;5072775;28;20041;-64
2022/11/26 11:03:22;;;;;;;52.35;20.63;;;7.10;99.90;;;;;;5071102;28;20056;-63
2022/11/26 11:05:48;;;;;;;51.38;19.92;;;7.20;99.90;;;;;;5072170;28;20048;-63
2022/11/26 11:08:31;;;;;;;49.03;19.50;;;7.20;99.90;;;;;;5073099;28;20043;-63
2022/11/26 11:11:01;;;;;;;54.58;22.02;;;7.20;99.90;;;;;;5072928;28;20411;-63
2022/11/26 11:13:41;;;;;;;50.75;21.55;;;7.30;99.90;;;;;;5054948;28;20559;-64
2022/11/26 11:16:08;;;;;;;55.42;19.02;;;7.30;99.90;;;;;;5072295;28;20055;-64
2022/11/26 11:18:34;;;;;;;51.38;20.48;;;7.30;99.90;;;;;;5073049;28;20602;-63
2022/11/26 11:21:02;;;;;;;51.45;18.42;;;7.30;99.90;;;;;;5072901;28;20040;-63
2022/11/26 11:23:34;;;;;;;62.88;20.92;;;7.40;99.90;;;;;;5072878;28;20040;-63
2022/11/26 11:26:02;;;;;;;50.85;22.48;;;7.40;99.90;;;;;;5071970;28;20410;-64
2022/11/26 11:28:31;;;;;;;49.03;20.45;;;7.50;99.90;;;;;;5072825;28;20070;-64
2022/11/26 11:31:17;;;;;;;48.70;18.77;;;7.50;99.90;;;;;;5072622;28;20397;-64
2022/11/26 11:33:43;;;;;;;56.55;20.02;;;7.50;99.90;;;;;;5071932;28;20165;-64
2022/11/26 11:36:15;;;;;;;59.38;19.42;;;7.50;99.90;;;;;;5072165;28;20291;-63
2022/11/26 11:38:49;;;;;;;58.42;20.65;;;7.60;99.90;;;;;;5072031;28;20040;-63
2022/11/26 11:41:30;;;;;;;53.47;21.35;;;7.60;99.90;;;;;;5072340;28;20040;-63
2022/11/26 11:44:16;;;;;;;59.70;22.65;;;7.70;99.90;;;;;;5060104;28;20386;-64
2022/11/26 11:46:41;;;;;;;52.03;21.50;;;7.70;99.90;;;;;;5061718;28;20037;-64
2022/11/26 11:49:29;;;;;;;59.60;22.95;;;7.70;99.90;;;;;;5043572;28;20173;-64
2022/11/26 11:52:10;;;;;;;67.95;24.90;;;7.70;99.90;;;;;;5062691;28;20107;-64
2022/11/26 11:54:48;;;;;;;64.88;23.13;;;7.80;99.90;;;;;;5062258;28;20388;-64
2022/11/26 11:58:01;;;;;;;64.60;27.83;;;7.80;99.90;;;;;;5062725;28;20059;-63
2022/11/26 12:00:38;;;;;;;;;;;7.80;99.90;;;;;;5058222;28;20779;-65
2022/11/26 12:03:25;;;;;;;59.63;23.30;;;7.80;99.90;;;;;;5071985;28;20287;-66
2022/11/26 12:06:16;;;;;;;57.42;23.73;;;7.90;99.90;;;;;;5071004;28;20493;-69
2022/11/26 12:08:56;;;;;;;49.15;21.83;;;8.00;99.90;;;;;;5071924;28;20036;-66
2022/11/26 12:11:40;;;;;;;61.20;26.08;;;8.10;99.90;;;;;;5070238;28;20056;-66
2022/11/26 12:14:31;;;;;;;47.85;21.58;;;8.10;99.90;;;;;;5070722;28;20041;-66
2022/11/26 12:17:13;;;;;;;68.53;31.80;;;8.10;99.90;;;;;;5071864;28;20049;-66
2022/11/26 12:19:47;;;;;;;58.70;21.07;;;8.10;99.90;;;;;;5071683;28;20044;-66
2022/11/26 12:22:22;;;;;;;47.30;20.75;;;8.10;99.90;;;;;;5071807;28;20354;-65
2022/11/26 12:24:57;;;;;;;50.08;20.33;;;8.10;99.90;;;;;;5070723;28;20048;-67
2022/11/26 12:27:39;;;;;;;51.13;20.73;;;8.20;99.90;;;;;;5071789;28;20044;-67
2022/11/26 12:30:07;;;;;;;48.78;18.25;;;8.20;99.90;;;;;;5071670;28;20040;-66
2022/11/26 12:32:51;;;;;;;45.75;20.02;;;8.20;99.90;;;;;;5071381;28;20127;-66
2022/11/26 12:35:32;;;;;;;48.83;18.42;;;8.20;99.90;;;;;;5070402;28;20512;-65
2022/11/26 12:38:03;;;;;;;44.08;16.35;;;8.30;99.90;;;;;;5071543;28;20044;-66
2022/11/26 12:40:42;;;;;;;45.42;17.02;;;8.20;99.90;;;;;;5071371;28;20040;-65
2022/11/26 12:43:43;;;;;;;36.92;16.65;;;8.20;99.90;;;;;;5071158;28;20036;-67
2022/11/26 12:46:24;;;;;;;53.63;22.95;;;8.30;99.90;;;;;;5071194;28;20119;-66
2022/11/26 12:49:12;;;;;;;43.03;16.65;;;8.30;99.90;;;;;;5071188;28;20098;-66
2022/11/26 12:52:08;;;;;;;44.22;18.63;;;8.20;99.90;;;;;;5070696;28;20625;-68
2022/11/26 12:54:53;;;;;;;37.40;16.73;;;8.30;99.90;;;;;;5067953;28;20052;-65
2022/11/26 12:57:27;;;;;;;38.40;16.58;;;8.30;99.90;;;;;;5071170;28;20261;-66